sensor_id;sensor_type;location;lat;lon;timestamp;pressure;altitude;pressure_sealevel;temperature;humidity
22647;BME280;11490;42.726;23.268;2023-05-08T00:01:23;95401.34;;;14.98;78.01
22647;BME280;11490;42.726;23.268;2023-05-08T00:03:50;95393.66;;;14.70;80.58
22647;BME280;11490;42.726;23.268;2023-05-08T00:06:15;95391.22;;;14.69;80.05
22647;BME280;11490;42.726;23.268;2023-05-08T00:08:41;95393.88;;;14.32;82.02
22647;BME280;11490;42.726;23.268;2023-05-08T00:11:06;95376.06;;;14.47;81.01
22647;BME280;11490;42.726;23.268;2023-05-08T00:13:32;95389.25;;;14.54;81.62
22647;BME280;11490;42.726;23.268;2023-05-08T00:15:57;95385.53;;;14.65;80.14
22647;BME280;11490;42.726;23.268;2023-05-08T00:18:23;95389.75;;;14.51;80.43
22647;BME280;11490;42.726;23.268;2023-05-08T00:20:48;95387.75;;;14.09;83.61
22647;BME280;11490;42.726;23.268;2023-05-08T00:23:13;95386.91;;;14.36;82.28
22647;BME280;11490;42.726;23.268;2023-05-08T00:25:39;95396.25;;;14.28;82.86
22647;BME280;11490;42.726;23.268;2023-05-08T00:28:04;95393.34;;;14.35;81.46
22647;BME280;11490;42.726;23.268;2023-05-08T00:30:29;95403.50;;;14.27;83.31
22647;BME280;11490;42.726;23.268;2023-05-08T00:32:55;95405.66;;;14.31;82.49
22647;BME280;11490;42.726;23.268;2023-05-08T00:35:20;95407.63;;;14.40;82.63
22647;BME280;11490;42.726;23.268;2023-05-08T00:37:45;95403.69;;;14.48;81.44
22647;BME280;11490;42.726;23.268;2023-05-08T00:40:11;95404.78;;;14.52;81.53
22647;BME280;11490;42.726;23.268;2023-05-08T00:42:37;95404.91;;;14.35;82.25
22647;BME280;11490;42.726;23.268;2023-05-08T00:45:02;95399.75;;;14.29;81.57
22647;BME280;11490;42.726;23.268;2023-05-08T00:47:29;95411.53;;;14.27;82.83
22647;BME280;11490;42.726;23.268;2023-05-08T00:49:56;95412.13;;;14.35;81.84
22647;BME280;11490;42.726;23.268;2023-05-08T00:52:22;95408.88;;;14.33;82.34
22647;BME280;11490;42.726;23.268;2023-05-08T00:54:48;95402.66;;;14.22;82.08
22647;BME280;11490;42.726;23.268;2023-05-08T00:57:14;95410.84;;;14.10;83.45
22647;BME280;11490;42.726;23.268;2023-05-08T00:59:41;95411.44;;;14.17;82.69
22647;BME280;11490;42.726;23.268;2023-05-08T01:02:08;95415.00;;;14.23;83.03
22647;BME280;11490;42.726;23.268;2023-05-08T01:04:34;95423.41;;;14.32;81.66
22647;BME280;11490;42.726;23.268;2023-05-08T01:07:01;95417.75;;;14.01;84.65
22647;BME280;11490;42.726;23.268;2023-05-08T01:09:26;95419.78;;;14.16;82.84
22647;BME280;11490;42.726;23.268;2023-05-08T01:17:23;95422.59;;;14.04;82.45
22647;BME280;11490;42.726;23.268;2023-05-08T01:31:29;95423.41;;;13.78;84.25
22647;BME280;11490;42.726;23.268;2023-05-08T01:34:09;95407.78;;;13.48;87.09
22647;BME280;11490;42.726;23.268;2023-05-08T01:36:43;95404.47;;;13.63;86.40
22647;BME280;11490;42.726;23.268;2023-05-08T01:39:33;95406.09;;;13.64;85.90
22647;BME280;11490;42.726;23.268;2023-05-08T01:42:04;95407.22;;;13.68;84.54
22647;BME280;11490;42.726;23.268;2023-05-08T01:44:40;95415.81;;;13.70;84.47
22647;BME280;11490;42.726;23.268;2023-05-08T01:47:09;95401.25;;;13.61;84.49
22647;BME280;11490;42.726;23.268;2023-05-08T01:49:47;95404.13;;;13.32;87.29
22647;BME280;11490;42.726;23.268;2023-05-08T01:55:08;95398.59;;;13.39;85.88
22647;BME280;11490;42.726;23.268;2023-05-08T01:57:39;95399.28;;;13.29;86.49
22647;BME280;11490;42.726;23.268;2023-05-08T02:00:06;95401.19;;;13.34;85.86
22647;BME280;11490;42.726;23.268;2023-05-08T02:02:33;95404.75;;;13.39;85.97
22647;BME280;11490;42.726;23.268;2023-05-08T02:05:01;95406.97;;;13.47;85.13
22647;BME280;11490;42.726;23.268;2023-05-08T02:07:28;95403.69;;;13.40;85.56
22647;BME280;11490;42.726;23.268;2023-05-08T02:09:55;95404.19;;;13.37;85.82
22647;BME280;11490;42.726;23.268;2023-05-08T02:12:23;95401.59;;;13.04;86.73
22647;BME280;11490;42.726;23.268;2023-05-08T02:14:50;95408.38;;;13.11;88.05
22647;BME280;11490;42.726;23.268;2023-05-08T02:17:17;95396.50;;;13.24;86.60
22647;BME280;11490;42.726;23.268;2023-05-08T02:19:43;95408.56;;;13.22;86.06
22647;BME280;11490;42.726;23.268;2023-05-08T02:22:11;95408.56;;;13.22;86.99
22647;BME280;11490;42.726;23.268;2023-05-08T02:24:38;95408.84;;;13.25;86.24
22647;BME280;11490;42.726;23.268;2023-05-08T02:27:05;95400.91;;;13.30;85.29
22647;BME280;11490;42.726;23.268;2023-05-08T02:29:34;95414.03;;;13.32;85.02
22647;BME280;11490;42.726;23.268;2023-05-08T02:32:00;95403.84;;;13.12;85.72
22647;BME280;11490;42.726;23.268;2023-05-08T02:34:27;95405.94;;;13.10;85.62
22647;BME280;11490;42.726;23.268;2023-05-08T02:36:54;95414.16;;;12.82;87.81
22647;BME280;11490;42.726;23.268;2023-05-08T02:39:20;95408.44;;;12.95;87.24
22647;BME280;11490;42.726;23.268;2023-05-08T02:41:49;95413.94;;;13.05;86.21
22647;BME280;11490;42.726;23.268;2023-05-08T02:44:14;95422.03;;;13.10;86.25
22647;BME280;11490;42.726;23.268;2023-05-08T02:49:24;95419.91;;;13.12;85.71
22647;BME280;11490;42.726;23.268;2023-05-08T02:52:02;95422.31;;;12.92;87.38
22647;BME280;11490;42.726;23.268;2023-05-08T02:54:37;95416.22;;;13.13;85.97
22647;BME280;11490;42.726;23.268;2023-05-08T02:57:12;95411.69;;;12.97;86.89
22647;BME280;11490;42.726;23.268;2023-05-08T02:59:42;95412.25;;;12.60;89.74
22647;BME280;11490;42.726;23.268;2023-05-08T03:02:39;95420.59;;;12.86;88.09
22647;BME280;11490;42.726;23.268;2023-05-08T03:05:17;95402.97;;;12.85;87.40
22647;BME280;11490;42.726;23.268;2023-05-08T03:07:46;95419.78;;;13.02;87.11
22647;BME280;11490;42.726;23.268;2023-05-08T03:10:14;95424.06;;;12.64;89.23
22647;BME280;11490;42.726;23.268;2023-05-08T03:12:44;95420.91;;;12.67;89.75
22647;BME280;11490;42.726;23.268;2023-05-08T03:17:45;95415.63;;;12.72;88.39
22647;BME280;11490;42.726;23.268;2023-05-08T03:20:15;95421.66;;;12.46;91.32
22647;BME280;11490;42.726;23.268;2023-05-08T03:22:44;95415.81;;;12.49;91.24
22647;BME280;11490;42.726;23.268;2023-05-08T03:25:12;95423.22;;;12.81;89.71
22647;BME280;11490;42.726;23.268;2023-05-08T03:27:39;95422.09;;;12.77;89.67
22647;BME280;11490;42.726;23.268;2023-05-08T03:30:06;95427.75;;;12.97;88.73
22647;BME280;11490;42.726;23.268;2023-05-08T03:32:33;95424.38;;;12.85;89.21
22647;BME280;11490;42.726;23.268;2023-05-08T03:35:00;95431.53;;;12.46;91.82
22647;BME280;11490;42.726;23.268;2023-05-08T03:37:28;95423.72;;;12.78;90.96
22647;BME280;11490;42.726;23.268;2023-05-08T03:39:54;95431.50;;;12.79;90.69
22647;BME280;11490;42.726;23.268;2023-05-08T03:42:23;95424.00;;;12.98;89.75
22647;BME280;11490;42.726;23.268;2023-05-08T03:44:50;95431.31;;;12.86;91.61
22647;BME280;11490;42.726;23.268;2023-05-08T03:47:20;95427.56;;;13.03;90.29
22647;BME280;11490;42.726;23.268;2023-05-08T03:49:47;95425.25;;;13.12;89.42
22647;BME280;11490;42.726;23.268;2023-05-08T03:52:14;95429.13;;;13.16;89.54
22647;BME280;11490;42.726;23.268;2023-05-08T03:54:39;95427.50;;;13.15;89.40
22647;BME280;11490;42.726;23.268;2023-05-08T03:57:05;95431.41;;;13.29;89.08
22647;BME280;11490;42.726;23.268;2023-05-08T04:04:40;95440.75;;;13.48;88.90
22647;BME280;11490;42.726;23.268;2023-05-08T04:07:28;95443.19;;;13.50;89.03
22647;BME280;11490;42.726;23.268;2023-05-08T04:12:49;95440.88;;;13.59;89.32
22647;BME280;11490;42.726;23.268;2023-05-08T04:15:23;95452.91;;;13.78;88.08
22647;BME280;11490;42.726;23.268;2023-05-08T04:17:52;95452.13;;;13.82;87.28
22647;BME280;11490;42.726;23.268;2023-05-08T04:20:20;95449.66;;;14.03;86.16
22647;BME280;11490;42.726;23.268;2023-05-08T04:22:49;95461.88;;;14.15;84.77
22647;BME280;11490;42.726;23.268;2023-05-08T04:25:17;95462.31;;;14.07;84.62
22647;BME280;11490;42.726;23.268;2023-05-08T04:27:44;95447.59;;;14.10;84.41
22647;BME280;11490;42.726;23.268;2023-05-08T04:30:10;95446.69;;;13.99;84.64
22647;BME280;11490;42.726;23.268;2023-05-08T04:32:36;95451.22;;;13.72;86.47
22647;BME280;11490;42.726;23.268;2023-05-08T04:35:03;95451.81;;;13.79;86.92
22647;BME280;11490;42.726;23.268;2023-05-08T04:37:29;95456.72;;;14.09;84.65
22647;BME280;11490;42.726;23.268;2023-05-08T04:39:58;95441.22;;;13.89;86.34
22647;BME280;11490;42.726;23.268;2023-05-08T04:42:24;95453.25;;;14.13;85.15
22647;BME280;11490;42.726;23.268;2023-05-08T04:44:53;95454.25;;;14.34;84.55
22647;BME280;11490;42.726;23.268;2023-05-08T04:47:20;95448.31;;;14.54;83.47
22647;BME280;11490;42.726;23.268;2023-05-08T04:49:45;95449.34;;;14.53;83.59
22647;BME280;11490;42.726;23.268;2023-05-08T04:52:10;95443.84;;;14.70;83.13
22647;BME280;11490;42.726;23.268;2023-05-08T04:54:36;95451.59;;;14.66;83.43
22647;BME280;11490;42.726;23.268;2023-05-08T04:57:01;95443.06;;;14.74;83.09
22647;BME280;11490;42.726;23.268;2023-05-08T04:59:27;95446.44;;;14.96;81.87
22647;BME280;11490;42.726;23.268;2023-05-08T05:01:53;95447.03;;;15.03;80.92
22647;BME280;11490;42.726;23.268;2023-05-08T05:04:20;95431.97;;;15.02;81.29
22647;BME280;11490;42.726;23.268;2023-05-08T05:06:45;95431.47;;;15.06;80.87
22647;BME280;11490;42.726;23.268;2023-05-08T05:09:11;95442.75;;;15.08;79.79
22647;BME280;11490;42.726;23.268;2023-05-08T05:11:36;95428.28;;;15.09;79.98
22647;BME280;11490;42.726;23.268;2023-05-08T05:14:02;95440.66;;;15.20;80.40
22647;BME280;11490;42.726;23.268;2023-05-08T05:16:27;95430.53;;;15.32;80.14
22647;BME280;11490;42.726;23.268;2023-05-08T05:18:52;95440.72;;;15.25;79.76
22647;BME280;11490;42.726;23.268;2023-05-08T05:21:18;95428.66;;;15.32;79.94
22647;BME280;11490;42.726;23.268;2023-05-08T05:23:44;95429.78;;;15.47;78.35
22647;BME280;11490;42.726;23.268;2023-05-08T05:26:09;95438.47;;;15.54;78.88
22647;BME280;11490;42.726;23.268;2023-05-08T05:28:35;95442.44;;;15.51;78.79
22647;BME280;11490;42.726;23.268;2023-05-08T05:31:00;95435.81;;;15.64;78.56
22647;BME280;11490;42.726;23.268;2023-05-08T05:33:26;95443.94;;;15.79;78.21
22647;BME280;11490;42.726;23.268;2023-05-08T05:35:51;95444.19;;;15.88;78.05
22647;BME280;11490;42.726;23.268;2023-05-08T05:38:16;95443.94;;;15.79;76.94
22647;BME280;11490;42.726;23.268;2023-05-08T05:40:42;95443.16;;;15.99;76.90
22647;BME280;11490;42.726;23.268;2023-05-08T05:43:08;95434.53;;;15.97;75.85
22647;BME280;11490;42.726;23.268;2023-05-08T05:45:33;95442.09;;;16.05;74.38
22647;BME280;11490;42.726;23.268;2023-05-08T05:47:59;95430.84;;;16.18;74.02
22647;BME280;11490;42.726;23.268;2023-05-08T05:50:24;95440.53;;;16.44;74.22
22647;BME280;11490;42.726;23.268;2023-05-08T05:52:50;95440.59;;;16.70;71.84
22647;BME280;11490;42.726;23.268;2023-05-08T05:55:16;95443.78;;;16.97;71.41
22647;BME280;11490;42.726;23.268;2023-05-08T05:57:41;95434.34;;;17.10;71.28
22647;BME280;11490;42.726;23.268;2023-05-08T06:00:07;95435.13;;;17.15;70.53
22647;BME280;11490;42.726;23.268;2023-05-08T06:02:34;95421.69;;;17.10;69.29
22647;BME280;11490;42.726;23.268;2023-05-08T06:05:00;95422.22;;;17.07;71.97
22647;BME280;11490;42.726;23.268;2023-05-08T06:07:25;95430.78;;;15.98;71.97
22647;BME280;11490;42.726;23.268;2023-05-08T06:09:51;95425.97;;;16.15;73.01
22647;BME280;11490;42.726;23.268;2023-05-08T06:12:17;95416.03;;;16.21;73.50
22647;BME280;11490;42.726;23.268;2023-05-08T06:14:43;95415.78;;;16.37;74.23
22647;BME280;11490;42.726;23.268;2023-05-08T06:17:08;95417.97;;;16.71;71.76
22647;BME280;11490;42.726;23.268;2023-05-08T06:19:34;95414.72;;;16.69;72.46
22647;BME280;11490;42.726;23.268;2023-05-08T06:21:59;95412.81;;;16.74;73.20
22647;BME280;11490;42.726;23.268;2023-05-08T06:24:24;95416.31;;;17.00;71.56
22647;BME280;11490;42.726;23.268;2023-05-08T06:26:50;95422.22;;;16.97;69.24
22647;BME280;11490;42.726;23.268;2023-05-08T06:29:15;95430.31;;;17.02;69.64
22647;BME280;11490;42.726;23.268;2023-05-08T06:31:41;95428.97;;;17.10;70.68
22647;BME280;11490;42.726;23.268;2023-05-08T06:34:06;95423.31;;;17.01;70.49
22647;BME280;11490;42.726;23.268;2023-05-08T06:36:32;95422.19;;;17.17;69.83
22647;BME280;11490;42.726;23.268;2023-05-08T06:38:57;95415.19;;;17.16;68.76
22647;BME280;11490;42.726;23.268;2023-05-08T06:41:22;95432.44;;;17.05;69.34
22647;BME280;11490;42.726;23.268;2023-05-08T06:43:48;95429.13;;;17.39;70.70
22647;BME280;11490;42.726;23.268;2023-05-08T06:46:13;95432.28;;;17.61;69.12
22647;BME280;11490;42.726;23.268;2023-05-08T06:48:38;95424.75;;;17.68;68.72
22647;BME280;11490;42.726;23.268;2023-05-08T06:51:04;95424.78;;;17.53;69.00
22647;BME280;11490;42.726;23.268;2023-05-08T06:53:29;95427.34;;;17.88;67.87
22647;BME280;11490;42.726;23.268;2023-05-08T06:55:55;95418.72;;;17.86;68.01
22647;BME280;11490;42.726;23.268;2023-05-08T06:58:22;95425.06;;;18.11;66.77
22647;BME280;11490;42.726;23.268;2023-05-08T07:00:48;95434.22;;;18.15;67.39
22647;BME280;11490;42.726;23.268;2023-05-08T07:03:13;95433.38;;;17.70;68.20
22647;BME280;11490;42.726;23.268;2023-05-08T07:05:39;95440.63;;;18.24;67.79
22647;BME280;11490;42.726;23.268;2023-05-08T07:08:04;95448.63;;;18.39;67.81
22647;BME280;11490;42.726;23.268;2023-05-08T07:10:29;95441.22;;;18.16;66.95
22647;BME280;11490;42.726;23.268;2023-05-08T07:12:55;95440.97;;;18.51;66.75
22647;BME280;11490;42.726;23.268;2023-05-08T07:15:26;95434.69;;;18.27;64.84
22647;BME280;11490;42.726;23.268;2023-05-08T07:17:53;95427.03;;;18.39;66.34
22647;BME280;11490;42.726;23.268;2023-05-08T07:20:18;95432.97;;;18.36;66.76
22647;BME280;11490;42.726;23.268;2023-05-08T07:22:44;95440.88;;;18.27;66.84
22647;BME280;11490;42.726;23.268;2023-05-08T07:25:10;95435.59;;;18.56;65.73
22647;BME280;11490;42.726;23.268;2023-05-08T07:27:36;95436.13;;;18.58;66.44
22647;BME280;11490;42.726;23.268;2023-05-08T07:30:02;95436.13;;;18.58;65.98
22647;BME280;11490;42.726;23.268;2023-05-08T07:32:29;95436.13;;;18.58;66.62
22647;BME280;11490;42.726;23.268;2023-05-08T07:34:55;95433.41;;;18.53;68.03
22647;BME280;11490;42.726;23.268;2023-05-08T07:37:21;95434.88;;;18.74;66.59
22647;BME280;11490;42.726;23.268;2023-05-08T07:39:47;95436.41;;;18.86;67.57
22647;BME280;11490;42.726;23.268;2023-05-08T07:42:12;95436.75;;;19.08;64.19
22647;BME280;11490;42.726;23.268;2023-05-08T07:44:45;95433.34;;;19.21;62.03
22647;BME280;11490;42.726;23.268;2023-05-08T07:47:10;95441.50;;;19.50;63.23
22647;BME280;11490;42.726;23.268;2023-05-08T07:49:44;95443.72;;;19.67;62.44
22647;BME280;11490;42.726;23.268;2023-05-08T07:52:09;95444.50;;;19.91;62.50
22647;BME280;11490;42.726;23.268;2023-05-08T07:54:34;95435.91;;;19.84;61.86
22647;BME280;11490;42.726;23.268;2023-05-08T08:00:00;95444.22;;;19.69;63.68
22647;BME280;11490;42.726;23.268;2023-05-08T08:02:26;95437.84;;;20.02;63.72
22647;BME280;11490;42.726;23.268;2023-05-08T08:04:51;95450.63;;;20.20;64.26
22647;BME280;11490;42.726;23.268;2023-05-08T08:07:17;95445.66;;;20.27;63.56
22647;BME280;11490;42.726;23.268;2023-05-08T08:09:44;95442.31;;;20.35;63.41
22647;BME280;11490;42.726;23.268;2023-05-08T08:12:09;95442.31;;;20.35;63.64
22647;BME280;11490;42.726;23.268;2023-05-08T08:14:35;95441.56;;;20.49;61.36
22647;BME280;11490;42.726;23.268;2023-05-08T08:17:01;95438.19;;;20.57;60.70
22647;BME280;11490;42.726;23.268;2023-05-08T08:19:26;95433.19;;;20.64;61.77
22647;BME280;11490;42.726;23.268;2023-05-08T08:21:52;95440.19;;;20.84;58.96
22647;BME280;11490;42.726;23.268;2023-05-08T08:24:17;95445.41;;;20.61;62.40
22647;BME280;11490;42.726;23.268;2023-05-08T08:26:42;95436.84;;;20.73;61.78
22647;BME280;11490;42.726;23.268;2023-05-08T08:29:08;95428.09;;;20.44;61.39
22647;BME280;11490;42.726;23.268;2023-05-08T08:31:33;95432.28;;;20.68;63.20
22647;BME280;11490;42.726;23.268;2023-05-08T08:33:58;95425.66;;;20.93;62.16
22647;BME280;11490;42.726;23.268;2023-05-08T08:36:24;95419.22;;;20.89;60.32
22647;BME280;11490;42.726;23.268;2023-05-08T08:38:49;95418.03;;;20.95;60.32
22647;BME280;11490;42.726;23.268;2023-05-08T08:41:15;95410.31;;;20.70;60.39
22647;BME280;11490;42.726;23.268;2023-05-08T08:43:40;95419.34;;;20.47;62.56
22647;BME280;11490;42.726;23.268;2023-05-08T08:46:12;95402.13;;;20.75;62.46
22647;BME280;11490;42.726;23.268;2023-05-08T08:48:43;95402.16;;;20.89;65.22
22647;BME280;11490;42.726;23.268;2023-05-08T08:51:13;95402.72;;;20.86;62.68
22647;BME280;11490;42.726;23.268;2023-05-08T08:53:45;95394.41;;;20.82;62.32
22647;BME280;11490;42.726;23.268;2023-05-08T08:56:14;95391.84;;;20.72;61.23
22647;BME280;11490;42.726;23.268;2023-05-08T08:58:46;95395.41;;;20.54;61.85
22647;BME280;11490;42.726;23.268;2023-05-08T09:01:16;95387.78;;;20.56;63.27
22647;BME280;11490;42.726;23.268;2023-05-08T09:03:42;95390.41;;;20.61;63.70
22647;BME280;11490;42.726;23.268;2023-05-08T09:06:08;95382.31;;;20.42;63.44
22647;BME280;11490;42.726;23.268;2023-05-08T09:08:34;95375.34;;;20.55;64.42
22647;BME280;11490;42.726;23.268;2023-05-08T09:11:00;95361.78;;;19.37;66.83
22647;BME280;11490;42.726;23.268;2023-05-08T09:13:27;95350.47;;;19.78;65.98
22647;BME280;11490;42.726;23.268;2023-05-08T09:15:53;95351.78;;;19.99;66.13
22647;BME280;11490;42.726;23.268;2023-05-08T09:18:18;95351.72;;;20.04;65.77
22647;BME280;11490;42.726;23.268;2023-05-08T09:20:44;95359.69;;;20.14;65.88
22647;BME280;11490;42.726;23.268;2023-05-08T09:23:10;95356.75;;;20.29;66.08
22647;BME280;11490;42.726;23.268;2023-05-08T09:25:43;95359.84;;;20.42;66.62
22647;BME280;11490;42.726;23.268;2023-05-08T09:28:22;95351.78;;;20.36;66.25
22647;BME280;11490;42.726;23.268;2023-05-08T09:30:50;95377.84;;;20.32;65.91
22647;BME280;11490;42.726;23.268;2023-05-08T09:33:16;95365.09;;;20.33;65.48
22647;BME280;11490;42.726;23.268;2023-05-08T09:35:42;95372.72;;;20.50;65.55
22647;BME280;11490;42.726;23.268;2023-05-08T09:38:07;95376.53;;;20.49;66.26
22647;BME280;11490;42.726;23.268;2023-05-08T09:40:33;95373.09;;;20.43;64.96
22647;BME280;11490;42.726;23.268;2023-05-08T09:43:11;95374.38;;;20.64;65.51
22647;BME280;11490;42.726;23.268;2023-05-08T09:45:37;95369.16;;;20.68;66.34
22647;BME280;11490;42.726;23.268;2023-05-08T09:48:04;95366.16;;;20.83;64.67
22647;BME280;11490;42.726;23.268;2023-05-08T09:50:30;95353.31;;;20.75;66.16
22647;BME280;11490;42.726;23.268;2023-05-08T09:52:57;95366.00;;;20.93;66.19
22647;BME280;11490;42.726;23.268;2023-05-08T09:55:22;95369.66;;;21.30;64.74
22647;BME280;11490;42.726;23.268;2023-05-08T09:57:52;95361.00;;;21.69;65.09
22647;BME280;11490;42.726;23.268;2023-05-08T10:00:18;95353.34;;;21.84;61.71
22647;BME280;11490;42.726;23.268;2023-05-08T10:02:58;95357.50;;;21.82;63.14
22647;BME280;11490;42.726;23.268;2023-05-08T10:05:27;95354.56;;;21.78;61.95
22647;BME280;11490;42.726;23.268;2023-05-08T10:07:54;95353.97;;;21.81;63.04
22647;BME280;11490;42.726;23.268;2023-05-08T10:10:27;95358.38;;;21.91;62.37
22647;BME280;11490;42.726;23.268;2023-05-08T10:12:54;95358.38;;;21.77;62.24
22647;BME280;11490;42.726;23.268;2023-05-08T10:15:25;95347.47;;;21.55;62.79
22647;BME280;11490;42.726;23.268;2023-05-08T10:17:53;95347.56;;;21.50;66.62
22647;BME280;11490;42.726;23.268;2023-05-08T10:20:19;95348.16;;;21.74;64.21
22647;BME280;11490;42.726;23.268;2023-05-08T10:22:47;95338.09;;;21.75;63.34
22647;BME280;11490;42.726;23.268;2023-05-08T10:25:19;95339.28;;;21.82;63.39
22647;BME280;11490;42.726;23.268;2023-05-08T10:27:54;95339.16;;;21.87;63.79
22647;BME280;11490;42.726;23.268;2023-05-08T10:30:26;95338.44;;;21.96;63.24
22647;BME280;11490;42.726;23.268;2023-05-08T10:32:52;95335.22;;;21.94;63.92
22647;BME280;11490;42.726;23.268;2023-05-08T10:35:22;95338.63;;;22.13;61.85
22647;BME280;11490;42.726;23.268;2023-05-08T10:37:48;95337.91;;;22.43;62.76
22647;BME280;11490;42.726;23.268;2023-05-08T10:40:14;95345.44;;;22.69;61.02
22647;BME280;11490;42.726;23.268;2023-05-08T10:42:40;95331.78;;;23.13;61.12
22647;BME280;11490;42.726;23.268;2023-05-08T10:45:07;95334.94;;;23.15;58.26
22647;BME280;11490;42.726;23.268;2023-05-08T10:55:52;95319.03;;;24.13;54.19
22647;BME280;11490;42.726;23.268;2023-05-08T11:03:16;95309.91;;;24.27;58.51
22647;BME280;11490;42.726;23.268;2023-05-08T11:05:47;95309.91;;;24.27;55.09
22647;BME280;11490;42.726;23.268;2023-05-08T11:08:20;95294.03;;;23.77;54.04
22647;BME280;11490;42.726;23.268;2023-05-08T11:11:03;95291.78;;;22.83;56.10
22647;BME280;11490;42.726;23.268;2023-05-08T11:13:37;95290.81;;;23.75;56.89
22647;BME280;11490;42.726;23.268;2023-05-08T11:16:05;95278.94;;;23.88;62.54
22647;BME280;11490;42.726;23.268;2023-05-08T11:18:33;95286.50;;;24.34;54.67
22647;BME280;11490;42.726;23.268;2023-05-08T11:21:00;95289.53;;;24.33;52.03
22647;BME280;11490;42.726;23.268;2023-05-08T11:23:37;95267.59;;;24.29;52.45
22647;BME280;11490;42.726;23.268;2023-05-08T11:28:40;95260.94;;;24.56;53.11
22647;BME280;11490;42.726;23.268;2023-05-08T11:31:19;95258.88;;;24.62;53.18
22647;BME280;11490;42.726;23.268;2023-05-08T11:33:45;95275.66;;;24.72;53.58
22647;BME280;11490;42.726;23.268;2023-05-08T11:36:12;95279.16;;;24.99;52.34
22647;BME280;11490;42.726;23.268;2023-05-08T11:38:39;95258.16;;;24.90;50.26
22647;BME280;11490;42.726;23.268;2023-05-08T11:41:20;95254.00;;;24.93;52.94
22647;BME280;11490;42.726;23.268;2023-05-08T11:43:57;95248.66;;;23.90;50.19
22647;BME280;11490;42.726;23.268;2023-05-08T11:46:59;95241.59;;;24.14;52.09
22647;BME280;11490;42.726;23.268;2023-05-08T11:49:25;95222.03;;;24.38;52.16
22647;BME280;11490;42.726;23.268;2023-05-08T11:51:52;95223.13;;;24.46;51.87
22647;BME280;11490;42.726;23.268;2023-05-08T11:54:20;95232.03;;;24.72;51.70
22647;BME280;11490;42.726;23.268;2023-05-08T11:56:50;95226.31;;;24.48;52.05
22647;BME280;11490;42.726;23.268;2023-05-08T11:59:16;95221.16;;;24.55;51.23
22647;BME280;11490;42.726;23.268;2023-05-08T12:01:43;95212.44;;;24.70;52.65
22647;BME280;11490;42.726;23.268;2023-05-08T12:04:10;95226.25;;;24.74;51.73
22647;BME280;11490;42.726;23.268;2023-05-08T12:06:40;95210.94;;;24.52;50.41
22647;BME280;11490;42.726;23.268;2023-05-08T12:09:14;95221.84;;;24.52;51.68
22647;BME280;11490;42.726;23.268;2023-05-08T12:11:40;95205.75;;;24.59;50.65
22647;BME280;11490;42.726;23.268;2023-05-08T12:14:08;95200.75;;;24.23;51.41
22647;BME280;11490;42.726;23.268;2023-05-08T12:16:44;95204.38;;;24.82;51.56
22647;BME280;11490;42.726;23.268;2023-05-08T12:19:12;95195.78;;;24.63;50.99
22647;BME280;11490;42.726;23.268;2023-05-08T12:21:44;95194.25;;;24.45;51.23
22647;BME280;11490;42.726;23.268;2023-05-08T12:24:10;95207.44;;;24.08;51.22
22647;BME280;11490;42.726;23.268;2023-05-08T12:26:37;95197.81;;;24.20;53.44
22647;BME280;11490;42.726;23.268;2023-05-08T12:29:06;95195.63;;;24.22;51.79
22647;BME280;11490;42.726;23.268;2023-05-08T12:31:41;95208.25;;;24.00;53.10
22647;BME280;11490;42.726;23.268;2023-05-08T12:34:07;95192.91;;;23.78;53.93
22647;BME280;11490;42.726;23.268;2023-05-08T12:36:37;95193.69;;;23.96;52.19
22647;BME280;11490;42.726;23.268;2023-05-08T12:39:10;95186.63;;;24.12;52.17
22647;BME280;11490;42.726;23.268;2023-05-08T12:41:47;95184.41;;;23.97;51.16
22647;BME280;11490;42.726;23.268;2023-05-08T12:44:21;95195.13;;;24.02;52.10
22647;BME280;11490;42.726;23.268;2023-05-08T12:46:54;95199.78;;;23.93;53.10
22647;BME280;11490;42.726;23.268;2023-05-08T12:49:28;95167.59;;;23.69;51.36
22647;BME280;11490;42.726;23.268;2023-05-08T12:52:08;95172.41;;;23.64;51.85
22647;BME280;11490;42.726;23.268;2023-05-08T12:54:38;95197.22;;;23.79;51.69
22647;BME280;11490;42.726;23.268;2023-05-08T12:57:17;95187.47;;;23.53;49.04
22647;BME280;11490;42.726;23.268;2023-05-08T12:59:44;95189.38;;;23.69;51.89
22647;BME280;11490;42.726;23.268;2023-05-08T13:02:20;95199.50;;;23.69;50.39
22647;BME280;11490;42.726;23.268;2023-05-08T13:04:52;95174.75;;;23.39;50.46
22647;BME280;11490;42.726;23.268;2023-05-08T13:07:18;95198.50;;;23.65;51.90
22647;BME280;11490;42.726;23.268;2023-05-08T13:09:57;95179.56;;;23.42;52.40
22647;BME280;11490;42.726;23.268;2023-05-08T13:12:27;95188.69;;;23.29;52.41
22647;BME280;11490;42.726;23.268;2023-05-08T13:14:52;95194.22;;;22.90;57.87
22647;BME280;11490;42.726;23.268;2023-05-08T13:17:18;95205.81;;;22.42;60.83
22647;BME280;11490;42.726;23.268;2023-05-08T13:19:43;95199.47;;;22.24;61.83
22647;BME280;11490;42.726;23.268;2023-05-08T13:22:11;95177.56;;;21.76;63.07
22647;BME280;11490;42.726;23.268;2023-05-08T13:24:36;95221.78;;;21.91;64.56
22647;BME280;11490;42.726;23.268;2023-05-08T13:27:02;95217.09;;;21.46;65.49
22647;BME280;11490;42.726;23.268;2023-05-08T13:29:27;95216.63;;;21.31;65.95
22647;BME280;11490;42.726;23.268;2023-05-08T13:31:53;95210.59;;;21.06;66.14
22647;BME280;11490;42.726;23.268;2023-05-08T13:34:21;95242.88;;;21.22;66.53
22647;BME280;11490;42.726;23.268;2023-05-08T13:36:48;95226.78;;;21.11;66.27
22647;BME280;11490;42.726;23.268;2023-05-08T13:39:13;95226.09;;;20.92;68.17
22647;BME280;11490;42.726;23.268;2023-05-08T13:41:39;95229.81;;;20.96;68.34
22647;BME280;11490;42.726;23.268;2023-05-08T13:44:04;95243.69;;;20.95;68.02
22647;BME280;11490;42.726;23.268;2023-05-08T13:46:30;95226.22;;;20.73;69.03